Time;durP1;ratioP1;P1;durP2;ratioP2;P2;SDS_P1;SDS_P2;PMS_P1;PMS_P2;Temp;Humidity;BMP_temperature;BMP_pressure;BME280_temperature;BME280_humidity;BME280_pressure;Samples;Min_cycle;Max_cycle;Signal;HPM_P1;HPM_P2
2022/12/26 00:02:06;;;;;;;;;1.00;1.00;;;;;13.46;80.05;101142.72;5038973;28;45317;-86
2022/12/26 00:04:32;;;;;;;;;1.00;1.00;;;;;13.48;80.25;101142.69;5038555;28;46455;-86
2022/12/26 00:06:57;;;;;;;;;1.25;1.00;;;;;13.48;80.24;101134.84;5056705;28;45365;-86
2022/12/26 00:09:22;;;;;;;;;2.25;1.00;;;;;13.48;79.87;101135.72;5038229;28;58060;-86
2022/12/26 00:11:48;;;;;;;;;0.25;0.25;;;;;13.47;80.15;101141.84;5055650;28;58571;-86
2022/12/26 00:14:14;;;;;;;;;2.00;1.00;;;;;13.46;80.15;101142.72;5038490;28;47720;-86
2022/12/26 00:16:41;;;;;;;;;2.75;1.00;;;;;13.44;80.05;101147.16;5055282;28;45694;-86
2022/12/26 00:19:07;;;;;;;;;3.00;1.00;;;;;13.44;80.47;101141.94;5056772;28;45321;-86
2022/12/26 00:21:32;;;;;;;;;0.00;0.00;;;;;13.42;80.05;101154.22;5056648;28;45219;-86
2022/12/26 00:23:59;;;;;;;;;1.50;0.50;;;;;13.41;80.17;101151.66;5038181;28;46798;-86
2022/12/26 00:26:26;;;;;;;;;0.75;0.75;;;;;13.39;80.45;101150.84;5038281;28;45442;-86
2022/12/26 00:28:53;;;;;;;;;3.00;0.25;;;;;13.40;80.49;101153.41;5038613;28;45378;-85
2022/12/26 00:31:31;;;;;;;;;1.75;1.00;;;;;13.40;80.53;101145.56;5056573;28;45513;-86
2022/12/26 00:33:57;;;;;;;;;1.25;0.75;;;;;13.41;80.49;101156.88;5038173;28;45580;-86
2022/12/26 00:36:26;;;;;;;;;1.00;0.50;;;;;13.41;80.55;101144.69;5038226;28;45541;-86
2022/12/26 00:38:51;;;;;;;;;1.25;1.25;;;;;13.42;80.86;101153.38;5056502;28;45364;-85
2022/12/26 00:41:18;;;;;;;;;3.50;1.00;;;;;13.41;81.11;101152.53;5055323;28;56959;-85
2022/12/26 00:43:43;;;;;;;;;3.50;2.50;;;;;13.41;80.94;101152.53;5038187;28;45635;-86
2022/12/26 00:46:09;;;;;;;;;3.00;1.00;;;;;13.41;81.16;101151.66;5038214;28;45741;-86
2022/12/26 00:48:34;;;;;;;;;1.75;1.75;;;;;13.40;81.36;101155.19;5038257;28;45345;-86
2022/12/26 00:51:00;;;;;;;;;3.25;2.00;;;;;13.38;81.26;101163.06;5037666;28;57095;-86
2022/12/26 00:53:26;;;;;;;;;3.75;2.50;;;;;13.35;81.42;101164.03;5056023;28;45717;-85
2022/12/26 00:55:51;;;;;;;;;2.75;2.75;;;;;13.33;81.58;101163.25;5055695;28;45288;-85
2022/12/26 00:58:18;;;;;;;;;3.00;1.00;;;;;13.31;82.00;101162.41;5038012;28;45420;-86
2022/12/26 01:00:43;;;;;;;;;2.00;2.00;;;;;13.30;82.13;101146.78;5055814;28;45347;-86
2022/12/26 01:03:10;;;;;;;;;4.00;2.00;;;;;13.26;82.39;101135.56;5055827;28;45333;-86
2022/12/26 01:05:39;;;;;;;;;5.00;3.00;;;;;13.23;83.35;101150.50;5037996;28;45748;-85
2022/12/26 01:08:05;;;;;;;;;4.00;2.50;;;;;13.16;83.88;101149.84;5055963;28;45297;-85
2022/12/26 01:10:30;;;;;;;;;2.00;2.00;;;;;13.08;84.48;101159.69;5020467;28;58502;-85
2022/12/26 01:12:55;;;;;;;;;3.00;2.00;;;;;13.04;85.14;101173.75;5037541;28;46550;-86
2022/12/26 01:15:21;;;;;;;;;6.25;3.75;;;;;12.96;85.50;101172.25;5055342;28;54875;-86
2022/12/26 01:17:46;;;;;;;;;6.50;2.25;;;;;12.93;85.83;101184.56;5037305;28;62671;-86
2022/12/26 01:20:13;;;;;;;;;3.00;3.00;;;;;12.88;85.82;101189.06;5037756;28;45385;-86
2022/12/26 01:22:38;;;;;;;;;2.75;2.75;;;;;12.86;86.34;101194.34;5055451;28;46694;-86
2022/12/26 01:25:04;;;;;;;;;6.50;3.00;;;;;12.82;86.67;101197.09;5036666;28;59427;-86
2022/12/26 01:27:30;;;;;;;;;3.00;1.00;;;;;12.76;87.04;101201.63;5056582;28;45433;-86
2022/12/26 01:29:55;;;;;;;;;3.50;2.00;;;;;12.72;87.49;101199.13;5058915;28;56698;-87
2022/12/26 01:32:21;;;;;;;;;3.75;2.75;;;;;12.67;87.21;101170.56;5041232;28;46383;-87
2022/12/26 01:34:47;;;;;;;;;2.50;2.00;;;;;12.67;87.06;101170.56;5059191;28;45367;-87
2022/12/26 01:37:13;;;;;;;;;1.75;1.75;;;;;12.67;87.21;101183.59;5041083;28;45345;-86
2022/12/26 01:39:39;;;;;;;;;6.25;1.50;;;;;12.65;86.82;101181.94;5058928;28;45634;-87
2022/12/26 01:42:12;;;;;;;;;3.75;2.00;;;;;12.65;86.98;101190.63;5040937;28;45466;-87
2022/12/26 01:45:22;;;;;;;;;2.00;2.00;;;;;12.63;87.01;101199.41;5041122;28;45364;-88
2022/12/26 01:48:11;;;;;;;;;2.00;0.25;;;;;12.62;86.81;101213.38;4957877;28;45424;-87
2022/12/26 01:50:59;;;;;;;;;3.25;1.25;;;;;12.62;87.08;101222.06;4957824;28;46028;-87
2022/12/26 01:53:42;;;;;;;;;1.25;1.00;;;;;12.62;86.80;101237.72;4925157;28;47570;-86
2022/12/26 01:56:14;;;;;;;;;2.25;2.25;;;;;12.61;86.80;101241.25;4957630;28;45724;-87
2022/12/26 01:58:45;;;;;;;;;3.00;1.00;;;;;12.61;86.87;101243.00;4957579;28;45490;-86
2022/12/26 02:01:11;;;;;;;;;1.00;0.00;;;;;12.61;87.03;101245.59;4952477;28;45467;-87
2022/12/26 02:06:22;;;;;;;;;0.00;0.00;;;;;12.61;86.94;101248.22;4924747;28;45451;-86
2022/12/26 02:08:48;;;;;;;;;1.00;1.00;;;;;12.62;86.65;101247.34;4937413;28;53268;-87
2022/12/26 02:11:31;;;;;;;;;3.00;1.00;;;;;12.64;86.87;101224.63;4938128;28;45699;-87
2022/12/26 02:13:57;;;;;;;;;1.00;1.00;;;;;12.66;87.10;101238.50;4921910;28;46258;-87
2022/12/26 02:16:24;;;;;;;;;1.75;1.00;;;;;12.59;87.43;101253.47;4921355;28;65581;-87
2022/12/26 02:18:49;;;;;;;;;1.50;1.50;;;;;12.55;88.02;101236.19;4922342;28;45376;-86
2022/12/26 02:21:42;;;;;;;;;7.25;1.00;;;;;12.51;88.33;101218.91;4921815;28;45469;-86
2022/12/26 02:24:43;;;;;;;;;1.00;1.00;;;;;12.47;88.36;101222.53;4992494;28;47223;-86
2022/12/26 02:27:46;;;;;;;;;2.25;1.00;;;;;12.43;88.43;101215.69;4976578;28;45716;-86
2022/12/26 02:30:29;;;;;;;;;1.50;1.00;;;;;12.41;88.75;101220.94;4960575;28;45411;-87
2022/12/26 02:33:18;;;;;;;;;1.25;0.00;;;;;12.39;88.54;101241.88;4976708;28;45553;-86
2022/12/26 02:36:08;;;;;;;;;1.75;1.00;;;;;12.34;88.82;101238.53;4969895;28;47632;-87
2022/12/26 02:38:36;;;;;;;;;7.00;1.00;;;;;12.34;88.82;101250.72;4975971;28;45423;-87
2022/12/26 02:41:27;;;;;;;;;1.00;1.00;;;;;12.32;88.69;101245.53;4957964;28;45299;-87
2022/12/26 02:47:30;;;;;;;;;0.00;0.00;;;;;12.28;88.36;101220.44;4956946;28;45263;-87
2022/12/26 03:13:11;;;;;;;;;1.25;0.00;;;;;12.33;87.15;101217.69;4923679;28;45403;-87
2022/12/26 03:18:28;;;;;;;;;1.25;0.00;;;;;12.29;87.02;101208.22;4923666;28;45364;-86
2022/12/26 03:20:54;;;;;;;;;2.00;0.50;;;;;12.28;86.96;101211.75;4955567;28;45544;-87
2022/12/26 03:23:20;;;;;;;;;0.00;0.00;;;;;12.29;87.70;101218.66;4978447;28;63547;-87
2022/12/26 03:28:42;;;;;;;;;0.00;0.00;;;;;12.29;87.07;101221.28;4996294;28;45386;-87
2022/12/26 03:31:10;;;;;;;;;0.00;0.00;;;;;12.28;86.31;101223.03;4983231;28;47179;-87
2022/12/26 03:36:26;;;;;;;;;1.00;0.00;;;;;12.29;86.87;101229.13;5006210;28;45236;-87
2022/12/26 03:39:06;;;;;;;;;0.50;0.00;;;;;12.29;86.68;101232.56;5037267;28;45274;-86
2022/12/26 04:19:22;;;;;;;;;0.50;0.00;;;;;12.18;85.27;101247.69;4941729;28;45277;-87
2022/12/26 04:44:33;;;;;;;;;0.00;0.00;;;;;12.19;84.76;101262.44;4961202;28;45567;-86
2022/12/26 04:46:59;;;;;;;;;0.00;0.00;;;;;12.19;84.84;101262.44;4973282;28;45553;-87
2022/12/26 04:52:10;;;;;;;;;1.00;0.00;;;;;12.19;84.54;101284.19;5040980;28;45654;-86
2022/12/26 04:54:36;;;;;;;;;1.00;0.00;;;;;12.17;84.63;101306.84;5038024;28;45464;-86
2022/12/26 04:57:02;;;;;;;;;0.00;0.00;;;;;12.17;84.77;101311.22;5055555;28;56102;-86
2022/12/26 04:59:27;;;;;;;;;0.00;0.00;;;;;12.16;84.61;101293.84;5056098;28;45752;-86
2022/12/26 05:10:26;;;;;;;;;1.00;0.00;;;;;12.16;84.30;101296.44;5040762;28;45716;-86
2022/12/26 05:12:52;;;;;;;;;1.25;0.00;;;;;12.15;84.27;101308.66;5055790;28;45294;-86
2022/12/26 05:15:18;;;;;;;;;1.50;0.00;;;;;12.13;nan;101305.22;5021027;28;45402;-86
2022/12/26 05:28:57;;;;;;;;;0.00;0.00;;;;;12.04;84.18;101312.44;5034877;28;45313;-86
2022/12/26 05:31:22;;;;;;;;;0.00;0.00;;;;;12.02;83.92;101307.25;5055302;28;46488;-86
2022/12/26 05:34:09;;;;;;;;;0.75;0.75;;;;;12.00;83.79;101307.28;5020915;28;48147;-86
2022/12/26 05:36:47;;;;;;;;;0.00;0.00;;;;;11.99;83.73;101312.56;5055824;28;45366;-87
2022/12/26 05:39:13;;;;;;;;;0.00;0.00;;;;;11.99;83.90;101321.22;5054022;28;45413;-86
2022/12/26 05:41:39;;;;;;;;;0.00;0.00;;;;;11.98;83.93;101319.53;5050946;28;45627;-86
2022/12/26 05:44:05;;;;;;;;;1.50;0.00;;;;;11.97;83.85;101327.38;5055445;28;45368;-87
2022/12/26 05:46:31;;;;;;;;;0.00;0.00;;;;;11.97;84.01;101328.22;5037392;28;45452;-87
2022/12/26 05:48:56;;;;;;;;;0.00;0.00;;;;;12.00;83.84;101333.38;5037707;28;45365;-86
2022/12/26 05:51:22;;;;;;;;;2.00;0.00;;;;;11.99;83.63;101346.47;5036732;28;68203;-87
2022/12/26 05:53:47;;;;;;;;;0.00;0.00;;;;;11.97;83.71;101358.69;5037473;28;45425;-86
2022/12/26 05:56:14;;;;;;;;;0.00;0.00;;;;;11.97;83.95;101375.19;5037552;28;45537;-87
2022/12/26 05:58:41;;;;;;;;;0.00;0.00;;;;;11.97;83.65;101362.16;5049385;28;45457;-86
2022/12/26 06:01:11;;;;;;;;;0.00;0.00;;;;;11.94;83.38;101361.38;5037349;28;45535;-87
2022/12/26 06:03:38;;;;;;;;;2.00;1.00;;;;;11.93;83.69;101365.75;5055000;28;45527;-86
2022/12/26 06:06:04;;;;;;;;;1.00;0.00;;;;;11.94;83.58;101370.06;5037375;28;45386;-86
2022/12/26 06:08:30;;;;;;;;;0.00;0.00;;;;;11.94;83.36;101356.16;5055495;28;45371;-86
2022/12/26 06:10:55;;;;;;;;;0.00;0.00;;;;;11.95;83.36;101347.44;5037240;28;45355;-86
2022/12/26 06:13:21;;;;;;;;;0.00;0.00;;;;;11.96;82.74;101349.16;5055136;28;45433;-86
2022/12/26 06:15:46;;;;;;;;;1.00;0.50;;;;;11.92;82.32;101351.00;5040247;28;51488;-86
2022/12/26 06:18:11;;;;;;;;;0.50;0.00;;;;;11.91;82.57;101341.44;5023143;28;65284;-86
2022/12/26 06:20:40;;;;;;;;;0.00;0.00;;;;;11.90;82.74;101334.50;5040150;28;56009;-86
2022/12/26 06:23:05;;;;;;;;;1.00;0.00;;;;;11.90;82.85;101331.88;5040123;28;49077;-86
2022/12/26 06:25:31;;;;;;;;;0.75;0.75;;;;;11.87;82.83;101325.84;5040311;28;46087;-86
2022/12/26 06:27:56;;;;;;;;;0.00;0.00;;;;;11.85;82.60;101317.22;5040350;28;45427;-86
2022/12/26 06:30:21;;;;;;;;;2.00;0.00;;;;;11.84;82.81;101321.59;5058254;28;46578;-86
2022/12/26 06:32:47;;;;;;;;;0.00;0.00;;;;;11.80;82.57;101327.78;5023034;28;62054;-86
2022/12/26 06:35:15;;;;;;;;;0.75;0.00;;;;;11.77;82.35;101331.31;5040192;28;47273;-87
2022/12/26 06:37:40;;;;;;;;;3.00;0.50;;;;;11.74;82.57;101354.03;5058251;28;45439;-87
2022/12/26 06:40:06;;;;;;;;;0.00;0.00;;;;;11.70;82.60;101344.53;5039580;28;70418;-86
2022/12/26 06:42:32;;;;;;;;;1.75;0.25;;;;;11.67;82.42;101349.84;5039661;28;45380;-86
2022/12/26 06:44:57;;;;;;;;;0.00;0.00;;;;;11.65;82.28;101356.84;5058056;28;51942;-86
2022/12/26 06:47:22;;;;;;;;;0.50;0.00;;;;;11.62;82.71;101368.19;5039751;28;53845;-86
2022/12/26 06:49:48;;;;;;;;;2.00;0.00;;;;;11.60;82.34;101368.22;5058055;28;46316;-86
2022/12/26 06:52:23;;;;;;;;;0.50;0.00;;;;;11.61;82.49;101367.34;5039954;28;55920;-89
2022/12/26 06:55:01;;;;;;;;;0.00;0.00;;;;;11.60;82.31;101367.38;5058335;28;45428;-88
2022/12/26 06:57:27;;;;;;;;;0.00;0.00;;;;;11.58;82.49;101374.38;5041411;28;45408;-87
2022/12/26 06:59:52;;;;;;;;;0.25;0.00;;;;;11.59;82.61;101376.09;5039776;28;46525;-87
2022/12/26 07:02:18;;;;;;;;;0.75;0.00;;;;;11.58;82.52;101375.22;5039745;28;45484;-87
2022/12/26 07:04:43;;;;;;;;;0.50;0.50;;;;;11.60;82.66;101376.03;5039639;28;46288;-86
2022/12/26 07:07:08;;;;;;;;;0.00;0.00;;;;;11.62;82.48;101389.03;5039852;28;45428;-87
2022/12/26 07:09:34;;;;;;;;;2.00;0.00;;;;;11.63;82.25;101383.81;5022728;28;58849;-86
2022/12/26 07:11:59;;;;;;;;;0.00;0.00;;;;;11.65;82.33;101393.34;5038471;28;67173;-86
2022/12/26 07:14:24;;;;;;;;;0.00;0.00;;;;;11.68;82.48;101391.53;5057674;28;45398;-86
2022/12/26 07:16:50;;;;;;;;;0.00;0.00;;;;;11.71;82.19;101388.00;5057395;28;50044;-86
2022/12/26 07:19:15;;;;;;;;;1.00;0.00;;;;;11.70;82.15;101383.66;5039480;28;49065;-86
2022/12/26 07:21:41;;;;;;;;;0.00;0.00;;;;;11.68;81.82;101406.31;5039395;28;45770;-86
2022/12/26 07:24:18;;;;;;;;;0.00;0.00;;;;;11.68;82.04;101398.47;5056365;28;45289;-86
2022/12/26 07:26:45;;;;;;;;;0.00;0.00;;;;;11.66;82.10;101405.47;5038605;28;45544;-86
2022/12/26 07:29:11;;;;;;;;;2.25;0.25;;;;;11.64;81.61;101395.09;5022919;28;47384;-86
2022/12/26 07:31:36;;;;;;;;;0.00;0.00;;;;;11.62;81.73;101405.53;5039500;28;45779;-86
2022/12/26 07:34:02;;;;;;;;;0.50;0.00;;;;;11.60;81.80;101402.13;5039622;28;45508;-86
2022/12/26 07:36:27;;;;;;;;;1.00;0.00;;;;;11.61;81.75;101414.28;5057510;28;45550;-86
2022/12/26 07:38:52;;;;;;;;;0.50;0.50;;;;;11.60;81.82;101416.91;5021491;28;72917;-86
2022/12/26 07:44:02;;;;;;;;;1.00;0.00;;;;;11.60;81.90;101417.75;5042032;28;45310;-87
2022/12/26 07:46:28;;;;;;;;;1.00;1.00;;;;;11.62;82.04;101423.78;5057538;28;45615;-87
2022/12/26 07:48:54;;;;;;;;;1.75;0.00;;;;;11.62;81.72;101438.59;5039049;28;48363;-86
2022/12/26 07:51:19;;;;;;;;;1.00;1.00;;;;;11.62;81.90;101444.66;5038237;28;67438;-86
2022/12/26 07:53:44;;;;;;;;;3.25;2.00;;;;;11.62;81.83;101455.09;5038940;28;50271;-86
2022/12/26 07:56:10;;;;;;;;;0.00;0.00;;;;;11.65;81.82;101453.34;5038278;28;45488;-86
2022/12/26 07:58:35;;;;;;;;;0.00;0.00;;;;;11.65;81.88;101443.75;5054801;28;71372;-86
2022/12/26 08:01:01;;;;;;;;;1.00;0.50;;;;;11.68;81.71;101450.63;5039012;28;45385;-86
2022/12/26 08:03:26;;;;;;;;;1.00;1.00;;;;;11.71;81.92;101466.22;5038566;28;45325;-87
2022/12/26 08:05:52;;;;;;;;;1.75;1.50;;;;;11.75;81.63;101468.72;5038850;28;52506;-87
2022/12/26 08:08:17;;;;;;;;;0.25;0.25;;;;;11.80;81.87;101474.69;5056096;28;64280;-86
2022/12/26 08:10:43;;;;;;;;;1.25;1.25;;;;;11.82;81.81;101472.06;5038339;28;45685;-86
2022/12/26 08:13:08;;;;;;;;;1.00;1.00;;;;;11.86;81.51;101476.31;5038860;28;45374;-86
2022/12/26 08:15:37;;;;;;;;;3.00;2.00;;;;;11.88;81.60;101473.66;5038591;28;45333;-86
2022/12/26 08:18:02;;;;;;;;;4.50;0.25;;;;;11.92;81.74;101484.06;5056497;28;46545;-86
2022/12/26 08:20:27;;;;;;;;;1.50;1.00;;;;;11.95;81.55;101480.50;5038644;28;45439;-86
2022/12/26 08:22:53;;;;;;;;;1.75;0.00;;;;;11.97;81.83;101474.34;5040266;28;45414;-87
2022/12/26 08:25:18;;;;;;;;;0.50;0.50;;;;;12.00;81.11;101473.44;5039063;28;45576;-87
2022/12/26 08:27:43;;;;;;;;;0.00;0.00;;;;;12.00;81.63;101476.03;5037866;28;61510;-87
2022/12/26 08:30:09;;;;;;;;;1.00;1.00;;;;;12.04;81.52;101482.06;5038588;28;45428;-87
2022/12/26 08:32:37;;;;;;;;;0.75;0.75;;;;;12.06;81.29;101493.31;5056617;28;45384;-87
2022/12/26 08:35:02;;;;;;;;;1.25;0.50;;;;;12.04;81.14;101498.56;5056111;28;51330;-87
2022/12/26 08:37:28;;;;;;;;;0.00;0.00;;;;;12.04;81.09;101497.72;5054029;28;48261;-86
2022/12/26 08:39:53;;;;;;;;;3.00;1.75;;;;;12.09;81.06;101501.03;5021358;28;45454;-86
2022/12/26 08:42:20;;;;;;;;;0.75;0.75;;;;;12.13;80.96;101502.72;5056215;28;45286;-86
2022/12/26 08:44:45;;;;;;;;;0.50;0.50;;;;;12.12;81.01;101507.06;5056721;28;45534;-86
2022/12/26 08:47:11;;;;;;;;;0.00;0.00;;;;;12.14;80.95;101509.63;5038356;28;46057;-86
2022/12/26 08:49:36;;;;;;;;;6.50;5.00;;;;;12.14;81.01;101515.72;5056257;28;45458;-86
2022/12/26 08:52:02;;;;;;;;;7.00;2.25;;;;;12.16;80.61;101516.53;5037787;28;61565;-86
2022/12/26 08:54:27;;;;;;;;;2.00;0.75;;;;;12.17;80.79;101515.66;5038231;28;45523;-85
2022/12/26 08:56:53;;;;;;;;;2.00;1.00;;;;;12.19;80.71;101516.47;5039318;28;46746;-86
2022/12/26 08:59:18;;;;;;;;;1.00;1.00;;;;;12.20;80.90;101512.09;5056633;28;46841;-86
2022/12/26 09:01:44;;;;;;;;;1.00;0.00;;;;;12.18;80.60;101520.00;5038353;28;45393;-86
2022/12/26 09:04:09;;;;;;;;;0.25;0.25;;;;;12.18;80.50;101522.59;5038315;28;45377;-86
2022/12/26 09:06:36;;;;;;;;;2.25;1.00;;;;;12.20;80.54;101522.53;5055038;28;68540;-86
2022/12/26 09:09:05;;;;;;;;;2.00;0.50;;;;;12.20;80.57;101535.59;5055844;28;45340;-86
2022/12/26 09:11:30;;;;;;;;;2.00;1.00;;;;;12.22;80.46;101539.03;5038113;28;45372;-85
2022/12/26 09:13:59;;;;;;;;;1.00;0.25;;;;;12.25;80.26;101548.53;5038056;28;45401;-86
2022/12/26 09:16:28;;;;;;;;;1.00;1.00;;;;;12.27;80.79;101545.00;5037748;28;45416;-86
2022/12/26 09:19:03;;;;;;;;;3.00;0.00;;;;;12.31;80.27;101545.78;5056060;28;45316;-86
2022/12/26 09:21:29;;;;;;;;;2.00;0.50;;;;;12.32;80.45;101558.81;5055945;28;45516;-86
2022/12/26 09:23:58;;;;;;;;;0.50;0.50;;;;;12.29;80.21;101558.88;5037722;28;45509;-86
2022/12/26 09:26:27;;;;;;;;;2.50;0.75;;;;;12.30;80.39;101559.75;5021153;28;48210;-87
2022/12/26 09:28:53;;;;;;;;;2.00;0.00;;;;;12.30;80.51;101560.59;5055945;28;45701;-87
2022/12/26 09:31:21;;;;;;;;;0.75;0.75;;;;;12.33;80.42;101563.16;5037969;28;45649;-87
2022/12/26 09:33:46;;;;;;;;;0.00;0.00;;;;;12.39;80.35;101569.97;5038039;28;45495;-86
2022/12/26 09:36:15;;;;;;;;;0.00;0.00;;;;;12.44;80.30;101559.41;5037162;28;45740;-87
2022/12/26 09:38:43;;;;;;;;;2.50;1.00;;;;;12.47;79.87;101575.88;5055442;28;45359;-87
2022/12/26 09:41:35;;;;;;;;;0.00;0.00;;;;;12.53;79.92;101565.28;5038037;28;45445;-86
2022/12/26 09:44:31;;;;;;;;;0.75;0.75;;;;;12.63;79.68;101565.94;4973879;28;45525;-86
2022/12/26 09:47:25;;;;;;;;;1.25;1.00;;;;;12.64;79.50;101565.03;4974048;28;46755;-85
2022/12/26 09:49:57;;;;;;;;;0.00;0.00;;;;;12.67;79.23;101569.31;4961027;28;45424;-85
2022/12/26 09:52:39;;;;;;;;;0.00;0.00;;;;;12.66;79.19;101571.06;4977816;28;45370;-85
2022/12/26 09:55:35;;;;;;;;;0.00;0.00;;;;;12.70;79.05;101577.06;4961109;28;45486;-85
2022/12/26 09:58:07;;;;;;;;;2.50;0.25;;;;;12.75;78.88;101593.50;4970189;28;45344;-85
2022/12/26 10:00:42;;;;;;;;;0.00;0.00;;;;;12.75;78.58;101583.03;4960955;28;45739;-85
2022/12/26 10:03:08;;;;;;;;;0.00;0.00;;;;;12.79;78.95;101579.47;4960979;28;45333;-85
2022/12/26 10:05:50;;;;;;;;;1.00;0.00;;;;;12.85;78.69;101581.94;4943699;28;60342;-85
2022/12/26 10:08:37;;;;;;;;;0.00;0.00;;;;;12.91;78.65;101587.00;4977188;28;47592;-85
2022/12/26 10:11:06;;;;;;;;;0.75;0.00;;;;;13.01;78.76;101594.59;4977744;28;45713;-85
2022/12/26 10:13:39;;;;;;;;;1.00;1.00;;;;;13.09;78.50;101597.88;4977328;28;45522;-85
2022/12/26 10:16:12;;;;;;;;;0.75;0.75;;;;;13.12;77.78;101606.50;4976683;28;45437;-85
2022/12/26 10:19:05;;;;;;;;;2.00;1.00;;;;;13.10;77.66;101603.06;4976693;28;46687;-85
2022/12/26 10:21:43;;;;;;;;;1.50;0.50;;;;;13.18;77.69;101613.31;5018160;28;45402;-86
2022/12/26 10:24:15;;;;;;;;;0.00;0.00;;;;;13.22;77.55;101611.47;5040571;28;45292;-85
2022/12/26 10:26:45;;;;;;;;;0.00;0.00;;;;;13.21;77.27;101609.78;5040589;28;45532;-85
2022/12/26 10:29:21;;;;;;;;;0.00;0.00;;;;;13.22;77.52;101601.03;5040639;28;47074;-85
2022/12/26 10:31:56;;;;;;;;;2.75;0.25;;;;;13.22;77.51;101595.81;5058473;28;45716;-86
2022/12/26 10:34:23;;;;;;;;;0.00;0.00;;;;;13.20;77.05;101597.59;5040107;28;45417;-85
2022/12/26 10:37:23;;;;;;;;;0.00;0.00;;;;;13.22;77.50;101587.97;5040433;28;45329;-85
2022/12/26 10:40:10;;;;;;;;;0.00;0.00;;;;;13.22;76.52;101596.66;5040129;28;46678;-86
2022/12/26 10:42:41;;;;;;;;;1.25;0.50;;;;;13.18;76.52;101595.88;5056483;28;45364;-85
2022/12/26 10:48:29;;;;;;;;;0.00;0.00;;;;;13.15;76.66;101601.19;5033153;28;45494;-85
2022/12/26 10:50:55;;;;;;;;;1.00;1.00;;;;;13.20;76.79;101606.28;5038849;28;75687;-85
2022/12/26 10:53:20;;;;;;;;;0.50;0.50;;;;;13.23;76.37;101597.53;5022811;28;66872;-85
2022/12/26 10:55:46;;;;;;;;;0.00;0.00;;;;;13.22;75.55;101603.66;5040260;28;45291;-84
2022/12/26 10:58:18;;;;;;;;;3.75;0.00;;;;;13.20;76.04;101608.06;5052202;28;57051;-85
2022/12/26 11:00:43;;;;;;;;;0.00;0.00;;;;;13.23;76.18;101608.00;5038958;28;47140;-85
2022/12/26 11:03:11;;;;;;;;;0.00;0.00;;;;;13.24;76.21;101605.34;5022405;28;63246;-85
2022/12/26 11:05:49;;;;;;;;;0.75;0.75;;;;;13.31;76.22;101609.50;5057919;28;45306;-85
2022/12/26 11:08:19;;;;;;;;;0.25;0.25;;;;;13.34;75.31;101604.22;5039838;28;45486;-85
2022/12/26 11:11:00;;;;;;;;;0.00;0.00;;;;;13.31;75.28;101612.13;5023027;28;47346;-85
2022/12/26 11:13:26;;;;;;;;;0.50;0.00;;;;;13.35;75.78;101603.31;5039710;28;45432;-86
2022/12/26 11:15:52;;;;;;;;;0.00;0.00;;;;;13.43;75.04;101602.25;5039435;28;51790;-84
2022/12/26 11:18:29;;;;;;;;;2.00;1.00;;;;;13.52;74.68;101602.00;5039142;28;47298;-84
2022/12/26 11:21:11;;;;;;;;;0.00;0.00;;;;;13.64;74.33;101599.03;5057659;28;46321;-85
2022/12/26 11:23:36;;;;;;;;;0.00;0.00;;;;;13.77;74.51;101599.56;5039550;28;45576;-84
2022/12/26 11:26:02;;;;;;;;;0.00;0.00;;;;;13.91;74.18;101596.53;5057627;28;45301;-85
2022/12/26 11:28:32;;;;;;;;;0.00;0.00;;;;;14.01;73.41;101592.75;5057412;28;45425;-85
2022/12/26 11:31:00;;;;;;;;;0.00;0.00;;;;;14.10;73.65;101596.88;5057441;28;45345;-85
2022/12/26 11:33:32;;;;;;;;;0.00;0.00;;;;;14.21;71.87;101607.00;5038996;28;45561;-85
2022/12/26 11:36:16;;;;;;;;;2.00;0.00;;;;;14.13;71.25;101615.97;5057404;28;45409;-85
2022/12/26 11:38:51;;;;;;;;;0.00;0.00;;;;;13.97;71.00;101624.28;5057424;28;45358;-85
2022/12/26 11:41:51;;;;;;;;;;;;;;;;;;;;;
2022/12/26 11:44:26;;;;;;;;;1.50;0.00;;;;;13.66;71.66;101644.34;5038681;28;74061;-84
2022/12/26 11:47:00;;;;;;;;;0.00;0.00;;;;;13.50;71.75;101659.59;5057238;28;45369;-83
2022/12/26 11:49:33;;;;;;;;;0.00;0.00;;;;;13.22;72.54;101663.78;5057398;28;45358;-84
2022/12/26 11:52:01;;;;;;;;;1.75;0.00;;;;;12.94;73.44;101667.91;5038947;28;45456;-83
2022/12/26 11:54:35;;;;;;;;;0.00;0.00;;;;;12.70;74.61;101671.09;5057309;28;45598;-83
2022/12/26 11:57:17;;;;;;;;;0.00;0.00;;;;;12.48;76.89;101673.34;5039164;28;45466;-85
2022/12/26 11:59:43;;;;;;;;;0.00;0.00;;;;;12.29;78.16;101673.72;5039148;28;45420;-84
2022/12/26 12:02:17;;;;;;;;;0.00;0.00;;;;;12.10;78.94;101683.69;5056400;28;45324;-84
2022/12/26 12:04:44;;;;;;;;;2.00;0.25;;;;;11.92;82.32;101682.34;5056833;28;45364;-86
2022/12/26 12:07:39;;;;;;;;;0.25;0.00;;;;;11.70;81.42;101686.19;5038906;28;45285;-86
2022/12/26 12:10:43;;;;;;;;;0.00;0.00;;;;;11.48;84.47;101683.97;5057004;28;45331;-86
2022/12/26 12:13:23;;;;;;;;;2.25;0.00;;;;;11.32;83.66;101678.16;5056682;28;45352;-84
2022/12/26 12:16:10;;;;;;;;;0.75;0.00;;;;;11.20;84.44;101683.59;5056258;28;45378;-84
2022/12/26 12:19:00;;;;;;;;;1.00;1.00;;;;;11.11;85.33;101681.97;5038919;28;45368;-83
2022/12/26 12:21:42;;;;;;;;;1.00;0.00;;;;;11.06;86.63;101680.34;5056731;28;45477;-82
2022/12/26 12:24:16;;;;;;;;;3.50;3.50;;;;;11.02;85.95;101685.59;5038532;28;45741;-82
2022/12/26 12:26:45;;;;;;;;;5.00;2.00;;;;;10.96;85.68;101708.28;5056543;28;45709;-83
2022/12/26 12:29:26;;;;;;;;;0.00;0.00;;;;;10.82;85.38;101700.66;5038550;28;45254;-82
2022/12/26 12:32:08;;;;;;;;;2.00;2.00;;;;;10.65;85.01;101706.97;5038128;28;45675;-83
2022/12/26 12:34:50;;;;;;;;;1.00;0.00;;;;;10.53;85.45;101709.75;5038383;28;46474;-83
2022/12/26 12:37:22;;;;;;;;;0.25;0.00;;;;;10.51;85.75;101710.63;5038575;28;45314;-82
2022/12/26 12:40:24;;;;;;;;;1.75;0.50;;;;;10.55;86.10;101707.09;5038960;28;45397;-83
2022/12/26 12:43:01;;;;;;;;;0.00;0.00;;;;;10.60;86.18;101708.75;4958180;28;45678;-82
2022/12/26 12:45:45;;;;;;;;;2.75;0.00;;;;;10.63;85.27;101713.94;4974613;28;47391;-81
2022/12/26 12:48:39;;;;;;;;;5.00;1.00;;;;;10.65;85.68;101719.13;4974637;28;45868;-82
2022/12/26 12:51:16;;;;;;;;;0.00;0.00;;;;;10.63;84.46;101708.72;4942234;28;45575;-82
2022/12/26 12:54:09;;;;;;;;;1.50;0.00;;;;;10.69;84.95;101710.38;4974550;28;45452;-83
2022/12/26 12:56:53;;;;;;;;;2.25;0.00;;;;;10.78;84.18;101718.06;4957766;28;46779;-85
2022/12/26 12:59:42;;;;;;;;;0.25;0.00;;;;;10.76;84.06;101716.38;4974242;28;46239;-85
2022/12/26 13:02:26;;;;;;;;;1.75;1.00;;;;;10.79;83.51;101711.09;4974464;28;45300;-82
2022/12/26 13:05:17;;;;;;;;;1.00;1.00;;;;;10.96;82.92;101713.50;4958302;28;45417;-83
2022/12/26 13:07:48;;;;;;;;;0.00;0.00;;;;;11.16;81.95;101720.97;4973491;28;46389;-83
2022/12/26 13:10:35;;;;;;;;;1.00;1.00;;;;;11.36;82.47;101723.28;4957977;28;45708;-84
2022/12/26 13:13:25;;;;;;;;;5.00;0.00;;;;;11.60;81.71;101727.22;4974069;28;45417;-83
2022/12/26 13:15:54;;;;;;;;;1.75;0.25;;;;;11.67;79.78;101731.44;4962153;28;45465;-83
2022/12/26 13:18:23;;;;;;;;;0.50;0.00;;;;;11.66;80.96;101732.31;4959240;28;47292;-84
2022/12/26 13:21:09;;;;;;;;;0.00;0.00;;;;;11.59;79.58;101742.00;5037770;28;45842;-84
2022/12/26 13:26:29;;;;;;;;;0.25;0.25;;;;;11.53;80.82;101746.47;5040672;28;45337;-84
2022/12/26 13:29:25;;;;;;;;;2.00;1.00;;;;;11.57;80.02;101738.56;5037346;28;45610;-83
2022/12/26 13:31:51;;;;;;;;;0.25;0.25;;;;;11.58;79.61;101737.66;5055665;28;45631;-83
2022/12/26 13:34:18;;;;;;;;;1.00;0.00;;;;;11.52;78.99;101740.41;5037616;28;45434;-83
2022/12/26 13:36:47;;;;;;;;;0.75;0.00;;;;;11.50;80.12;101742.16;5021069;28;45568;-84
2022/12/26 13:39:21;;;;;;;;;1.00;0.00;;;;;11.43;78.85;101744.00;5055641;28;46481;-83
2022/12/26 13:44:44;;;;;;;;;0.75;0.50;;;;;11.40;78.39;101753.63;5037483;28;45584;-84
2022/12/26 13:47:32;;;;;;;;;1.00;1.00;;;;;11.53;78.73;101756.88;5055706;28;45277;-83
2022/12/26 13:50:10;;;;;;;;;0.00;0.00;;;;;11.66;78.40;101761.00;5020642;28;48167;-84
2022/12/26 13:52:59;;;;;;;;;0.25;0.25;;;;;11.74;77.66;101760.91;5052307;28;45867;-83
2022/12/26 13:55:31;;;;;;;;;3.75;1.00;;;;;11.74;78.15;101771.34;5055457;28;45349;-84
2022/12/26 13:58:19;;;;;;;;;0.00;0.00;;;;;11.70;77.75;101772.25;5020320;28;45502;-84
2022/12/26 14:00:46;;;;;;;;;1.50;1.00;;;;;11.69;77.47;101775.75;5037158;28;45426;-83